Time;durP1;ratioP1;P1;durP2;ratioP2;P2;SDS_P1;SDS_P2;PMS_P1;PMS_P2;Temp;Humidity;BMP_temperature;BMP_pressure;BME280_temperature;BME280_humidity;BME280_pressure;Samples;Min_cycle;Max_cycle;Signal;HPM_P1;HPM_P2
2024/03/30 00:01:40;;;;;;;1.77;1.63;;;10.10;95.30;10.00;99104.00;;;;4894097;28;121139;-64
2024/03/30 00:04:08;;;;;;;2.70;1.40;;;10.10;95.50;9.90;99106.00;;;;4895991;28;120925;-64
2024/03/30 00:06:33;;;;;;;2.80;2.20;;;10.00;95.70;9.90;99105.00;;;;4897088;28;100359;-64
2024/03/30 00:08:59;;;;;;;3.53;2.20;;;10.00;95.80;9.90;99111.00;;;;4893187;28;108017;-64
2024/03/30 00:11:24;;;;;;;2.13;1.83;;;10.00;96.00;9.80;99114.00;;;;4894297;28;124270;-64
2024/03/30 00:13:50;;;;;;;5.10;2.47;;;9.90;96.00;9.80;99101.00;;;;4891411;28;121634;-64
2024/03/30 00:16:17;;;;;;;3.03;2.13;;;9.80;96.20;9.70;99109.00;;;;4894043;28;110021;-64
2024/03/30 00:18:45;;;;;;;2.70;1.70;;;9.80;96.30;9.70;99100.00;;;;4893659;28;93003;-64
2024/03/30 00:21:17;;;;;;;3.47;2.57;;;9.80;96.40;9.60;99091.00;;;;4897185;28;92394;-64
2024/03/30 00:23:43;;;;;;;4.47;2.00;;;9.70;96.60;9.60;99100.00;;;;4894562;28;122380;-64
2024/03/30 00:26:09;;;;;;;3.10;2.37;;;9.70;96.90;9.50;99102.00;;;;4898561;28;92816;-64
2024/03/30 00:28:35;;;;;;;2.07;1.87;;;9.60;97.10;9.50;99092.00;;;;4892903;28;109598;-64
2024/03/30 00:31:01;;;;;;;2.80;1.87;;;9.60;97.30;9.40;99090.00;;;;4891969;28;100220;-65
2024/03/30 00:33:27;;;;;;;3.73;1.67;;;9.50;97.40;9.40;99076.00;;;;4894615;28;93319;-64
2024/03/30 00:35:55;;;;;;;1.97;1.77;;;9.50;97.60;9.30;99082.00;;;;4898467;28;108975;-64
2024/03/30 00:38:23;;;;;;;3.47;2.33;;;9.40;97.80;9.30;99068.00;;;;4899121;28;92981;-63
2024/03/30 00:40:49;;;;;;;3.03;1.93;;;9.40;97.90;9.20;99078.00;;;;4897083;28;114714;-64
2024/03/30 00:43:14;;;;;;;3.67;1.97;;;9.40;98.30;9.20;99069.00;;;;4897343;28;121153;-64
2024/03/30 00:45:42;;;;;;;2.63;2.00;;;9.30;98.70;9.10;99067.00;;;;4893867;28;109972;-63
2024/03/30 00:48:08;;;;;;;2.80;1.17;;;9.30;99.40;9.10;99068.00;;;;4889802;28;93286;-64
2024/03/30 00:50:34;;;;;;;3.23;2.23;;;9.30;99.60;9.10;99066.00;;;;4894922;28;122502;-63
2024/03/30 00:53:01;;;;;;;3.93;1.70;;;9.20;99.80;9.00;99068.00;;;;4894619;28;94179;-63
2024/03/30 00:55:27;;;;;;;5.63;2.10;;;9.10;99.90;9.00;99077.00;;;;4892415;28;93245;-63
2024/03/30 00:57:53;;;;;;;3.13;2.10;;;9.10;99.90;9.00;99073.00;;;;4895407;28;108897;-63
2024/03/30 01:00:19;;;;;;;2.50;2.07;;;9.10;99.90;9.00;99077.00;;;;4892990;28;122676;-64
2024/03/30 01:02:45;;;;;;;1.83;1.73;;;9.10;99.90;9.00;99075.00;;;;4898051;28;93827;-65
2024/03/30 01:05:11;;;;;;;3.40;1.73;;;9.10;99.90;9.00;99083.00;;;;4890606;28;110564;-66
2024/03/30 01:07:38;;;;;;;3.87;2.70;;;9.10;99.90;9.00;99086.00;;;;4894211;28;108697;-65
2024/03/30 01:10:07;;;;;;;2.17;1.73;;;9.00;99.90;8.90;99076.00;;;;4896382;28;100213;-65
2024/03/30 01:12:33;;;;;;;3.00;2.33;;;9.10;99.90;8.90;99078.00;;;;4897902;28;113830;-66
2024/03/30 01:15:00;;;;;;;3.13;1.97;;;9.00;99.90;8.90;99083.00;;;;4892123;28;94396;-65
2024/03/30 01:17:26;;;;;;;2.73;2.20;;;9.00;99.90;8.90;99071.00;;;;4890515;28;94311;-63
2024/03/30 01:19:52;;;;;;;2.43;2.00;;;9.10;99.90;8.90;99077.00;;;;4886550;28;113554;-64
2024/03/30 01:22:18;;;;;;;2.47;1.87;;;9.00;99.90;8.90;99077.00;;;;4893748;28;93611;-63
2024/03/30 01:24:45;;;;;;;2.57;1.33;;;9.00;99.90;8.90;99079.00;;;;4893531;28;93335;-64
2024/03/30 01:27:15;;;;;;;5.53;1.73;;;9.00;99.90;8.90;99087.00;;;;4894288;28;93101;-64
2024/03/30 01:29:42;;;;;;;2.77;1.50;;;9.00;99.90;8.90;99078.00;;;;4883297;28;93479;-64
2024/03/30 01:32:10;;;;;;;2.13;1.50;;;9.00;99.90;8.90;99075.00;;;;4892910;28;93167;-64
2024/03/30 01:34:36;;;;;;;1.97;1.80;;;9.00;99.90;8.90;99085.00;;;;4891075;28;98906;-63
2024/03/30 01:37:02;;;;;;;2.37;2.00;;;9.00;99.90;8.90;99084.00;;;;4889819;28;99743;-63
2024/03/30 01:39:27;;;;;;;1.97;1.60;;;9.00;99.90;9.00;99093.00;;;;4892581;28;94557;-63
2024/03/30 01:41:53;;;;;;;2.53;1.47;;;9.00;99.90;9.00;99095.00;;;;4892412;28;122849;-63
2024/03/30 01:44:19;;;;;;;4.40;2.17;;;9.00;99.90;9.00;99086.00;;;;4892893;28;109786;-64
2024/03/30 01:46:47;;;;;;;2.97;1.40;;;9.10;99.90;9.00;99079.00;;;;4890088;28;109463;-63
2024/03/30 01:49:13;;;;;;;2.70;1.97;;;9.00;99.90;9.00;99076.00;;;;4890994;28;107089;-64
2024/03/30 01:51:39;;;;;;;1.87;1.73;;;9.10;99.90;8.90;99071.00;;;;4890674;28;93862;-64
2024/03/30 01:54:08;;;;;;;2.00;1.70;;;9.00;99.90;9.00;99075.00;;;;4896759;28;110237;-63
2024/03/30 01:56:34;;;;;;;2.17;1.10;;;9.00;99.90;9.00;99067.00;;;;4893544;28;92870;-64
2024/03/30 01:59:02;;;;;;;2.03;1.60;;;9.10;99.90;9.00;99070.00;;;;4891158;28;119158;-64
2024/03/30 02:01:28;;;;;;;3.83;1.97;;;9.00;99.90;9.00;99072.00;;;;4889352;28;93053;-63
2024/03/30 02:03:54;;;;;;;1.97;1.80;;;9.10;99.90;9.00;99057.00;;;;4891371;28;109091;-64
2024/03/30 02:06:21;;;;;;;1.80;1.67;;;9.10;99.90;9.00;99057.00;;;;4892616;28;93788;-63
2024/03/30 02:08:48;;;;;;;1.80;1.53;;;9.10;99.90;9.00;99050.00;;;;4892649;28;122646;-63
2024/03/30 02:11:15;;;;;;;1.60;1.33;;;9.10;99.90;9.00;99052.00;;;;4896918;28;122463;-63
2024/03/30 02:13:41;;;;;;;5.53;1.83;;;9.10;99.90;9.00;99051.00;;;;4893991;28;109773;-64
2024/03/30 02:16:07;;;;;;;2.00;1.90;;;9.20;99.90;9.00;99047.00;;;;4894977;28;93105;-64
2024/03/30 02:18:33;;;;;;;1.93;1.57;;;9.10;99.90;9.00;99033.00;;;;4895555;28;123400;-64
2024/03/30 02:20:59;;;;;;;4.60;1.63;;;9.10;99.90;9.00;99047.00;;;;4894943;28;123882;-64
2024/03/30 02:23:25;;;;;;;2.40;1.70;;;9.10;99.90;9.10;99053.00;;;;4894813;28;92231;-63
2024/03/30 02:25:51;;;;;;;4.50;1.20;;;9.10;99.90;9.10;99048.00;;;;4895732;28;107730;-63
2024/03/30 02:28:16;;;;;;;1.67;1.53;;;9.20;99.90;9.10;99056.00;;;;4894491;28;122619;-63
2024/03/30 02:30:43;;;;;;;3.30;2.00;;;9.20;99.90;9.10;99057.00;;;;4896417;28;94060;-64
2024/03/30 02:33:10;;;;;;;2.33;1.60;;;9.20;99.90;9.10;99066.00;;;;4896777;28;109172;-64
2024/03/30 02:35:36;;;;;;;4.50;2.53;;;9.20;99.90;9.10;99053.00;;;;4900209;28;108066;-64
2024/03/30 02:38:02;;;;;;;3.07;1.50;;;9.20;99.90;9.10;99055.00;;;;4898940;28;123188;-65
2024/03/30 02:40:28;;;;;;;3.90;1.70;;;9.20;99.90;9.20;99060.00;;;;4902349;28;92835;-64
2024/03/30 02:42:53;;;;;;;3.03;1.77;;;9.20;99.90;9.20;99059.00;;;;4902905;28;93182;-64
2024/03/30 02:45:19;;;;;;;2.67;1.33;;;9.20;99.90;9.20;99064.00;;;;4897825;28;107667;-65
2024/03/30 02:47:45;;;;;;;3.33;1.63;;;9.50;99.90;9.20;99062.00;;;;4896950;28;123059;-66
2024/03/30 02:50:11;;;;;;;1.33;1.20;;;9.30;99.90;9.30;99053.00;;;;4899041;28;120280;-65
2024/03/30 02:52:36;;;;;;;2.07;1.63;;;9.30;99.90;9.30;99066.00;;;;4897738;28;109097;-64
2024/03/30 02:55:03;;;;;;;2.57;1.70;;;9.40;99.90;9.40;99063.00;;;;4898397;28;93871;-65
2024/03/30 02:57:28;;;;;;;2.33;1.50;;;9.40;99.90;9.40;99054.00;;;;4895396;28;96406;-65
2024/03/30 02:59:54;;;;;;;3.20;1.90;;;9.50;99.90;9.50;99067.00;;;;4898710;28;93156;-64
2024/03/30 03:02:21;;;;;;;2.43;1.60;;;9.60;99.90;9.50;99059.00;;;;4894153;28;110079;-63
2024/03/30 03:04:47;;;;;;;1.67;1.30;;;9.60;99.90;9.60;99060.00;;;;4897269;28;92957;-64
2024/03/30 03:07:16;;;;;;;1.60;1.50;;;9.60;99.90;9.60;99054.00;;;;4894058;28;93769;-63
2024/03/30 03:09:42;;;;;;;2.27;1.93;;;9.60;99.90;9.60;99067.00;;;;4894836;28;93765;-64
2024/03/30 03:12:08;;;;;;;1.50;1.40;;;9.60;99.90;9.60;99057.00;;;;4894453;28;92268;-63
2024/03/30 03:14:35;;;;;;;1.20;1.10;;;9.70;99.90;9.60;99074.00;;;;4893538;28;94913;-63
2024/03/30 03:17:01;;;;;;;1.47;1.33;;;9.70;99.90;9.60;99062.00;;;;4895285;28;93494;-64
2024/03/30 03:19:26;;;;;;;5.33;2.00;;;9.70;99.90;9.60;99062.00;;;;4897092;28;120939;-63
2024/03/30 03:21:52;;;;;;;2.50;2.03;;;9.70;99.90;9.60;99059.00;;;;4896501;28;109001;-63
2024/03/30 03:24:18;;;;;;;2.80;1.50;;;9.70;99.90;9.60;99051.00;;;;4893743;28;107886;-64
2024/03/30 03:26:43;;;;;;;1.70;1.60;;;9.70;99.90;9.70;99060.00;;;;4896244;28;121906;-64
2024/03/30 03:29:10;;;;;;;1.50;1.20;;;9.70;99.90;9.70;99055.00;;;;4893477;28;123235;-64
2024/03/30 03:31:35;;;;;;;2.07;1.83;;;9.70;99.90;9.70;99057.00;;;;4894910;28;93001;-64
2024/03/30 03:34:01;;;;;;;2.50;2.13;;;9.70;99.90;9.70;99067.00;;;;4895733;28;93362;-64
2024/03/30 03:36:27;;;;;;;2.93;1.53;;;9.80;99.90;9.70;99066.00;;;;4892333;28;121827;-64
2024/03/30 03:38:52;;;;;;;3.17;1.50;;;9.70;99.90;9.70;99049.00;;;;4892874;28;121805;-63
2024/03/30 03:41:18;;;;;;;4.20;2.20;;;9.80;99.90;9.70;99053.00;;;;4894796;28;112237;-63
2024/03/30 03:43:44;;;;;;;2.67;1.23;;;9.70;99.90;9.70;99056.00;;;;4894479;28;109376;-64
2024/03/30 03:46:09;;;;;;;1.60;1.00;;;9.70;99.90;9.60;99049.00;;;;4894906;28;93096;-63
2024/03/30 03:48:35;;;;;;;2.00;1.70;;;9.70;99.90;9.60;99048.00;;;;4896132;28;122543;-64
2024/03/30 03:51:01;;;;;;;2.67;1.40;;;9.70;99.90;9.60;99056.00;;;;4897230;28;109752;-64
2024/03/30 03:53:27;;;;;;;2.10;1.87;;;9.70;99.90;9.60;99058.00;;;;4894881;28;92969;-64
2024/03/30 03:55:53;;;;;;;1.40;1.30;;;9.70;99.90;9.60;99056.00;;;;4894464;28;115047;-64
2024/03/30 03:58:18;;;;;;;1.93;1.70;;;9.60;99.90;9.60;99047.00;;;;4894500;28;121530;-64
2024/03/30 04:00:44;;;;;;;1.03;1.00;;;9.70;99.90;9.50;99038.00;;;;4894288;28;110396;-63
2024/03/30 04:03:09;;;;;;;2.20;1.50;;;9.60;99.90;9.50;99032.00;;;;4894663;28;108941;-63
2024/03/30 04:05:36;;;;;;;1.37;1.27;;;9.60;99.90;9.50;99029.00;;;;4894800;28;123149;-64
2024/03/30 04:08:02;;;;;;;2.07;1.30;;;9.50;99.90;9.50;99036.00;;;;4893373;28;122459;-65
2024/03/30 04:10:27;;;;;;;2.83;1.63;;;9.60;99.90;9.50;99052.00;;;;4892186;28;93079;-65
2024/03/30 04:12:53;;;;;;;1.07;0.93;;;9.60;99.90;9.50;99038.00;;;;4890626;28;109034;-64
2024/03/30 04:15:19;;;;;;;2.00;1.47;;;9.60;99.90;9.50;99042.00;;;;4889871;28;93511;-65
2024/03/30 04:17:45;;;;;;;2.93;1.97;;;9.60;99.90;9.50;99038.00;;;;4894825;28;104814;-64
2024/03/30 04:20:11;;;;;;;2.63;1.97;;;9.60;99.90;9.40;99028.00;;;;4893860;28;92845;-64
2024/03/30 04:22:37;;;;;;;1.90;1.70;;;9.50;99.90;9.40;99031.00;;;;4894810;28;108343;-64
2024/03/30 04:25:03;;;;;;;2.97;2.17;;;9.50;99.90;9.40;99035.00;;;;4893047;28;93390;-64
2024/03/30 04:27:29;;;;;;;2.50;1.80;;;9.50;99.90;9.30;99036.00;;;;4894642;28;104743;-65
2024/03/30 04:29:56;;;;;;;5.07;1.57;;;9.50;99.90;9.30;99036.00;;;;4894201;28;109971;-65
2024/03/30 04:32:22;;;;;;;1.43;1.17;;;9.40;99.90;9.30;99032.00;;;;4891967;28;94177;-65
2024/03/30 04:34:48;;;;;;;4.27;1.87;;;9.40;99.90;9.30;99051.00;;;;4882010;28;106658;-64
2024/03/30 04:37:14;;;;;;;1.97;1.77;;;9.30;99.90;9.30;99041.00;;;;4900056;28;121504;-65
2024/03/30 04:39:42;;;;;;;3.67;1.63;;;9.40;99.90;9.20;99049.00;;;;4898305;28;110931;-64
2024/03/30 04:42:11;;;;;;;2.77;1.30;;;9.40;99.90;9.20;99044.00;;;;4901454;28;92872;-64
2024/03/30 04:44:37;;;;;;;1.57;1.20;;;9.30;99.90;9.20;99049.00;;;;4895789;28;92985;-64
2024/03/30 04:47:03;;;;;;;4.30;2.17;;;9.30;99.90;9.20;99040.00;;;;4892574;28;111139;-64
2024/03/30 04:49:29;;;;;;;3.43;1.90;;;9.30;99.90;9.20;99039.00;;;;4893044;28;101506;-63
2024/03/30 04:51:55;;;;;;;2.10;1.63;;;9.30;99.90;9.10;99043.00;;;;4892398;28;92939;-63
2024/03/30 04:54:21;;;;;;;2.70;1.77;;;9.20;99.90;9.10;99036.00;;;;4892501;28;115348;-64
2024/03/30 04:56:46;;;;;;;3.90;2.00;;;9.10;99.90;9.10;99037.00;;;;4882422;28;122283;-65
2024/03/30 04:59:12;;;;;;;1.93;1.70;;;9.20;99.90;9.10;99037.00;;;;4892369;28;93131;-65
2024/03/30 05:01:38;;;;;;;1.37;1.17;;;9.20;99.90;9.00;99030.00;;;;4892779;28;108613;-65
2024/03/30 05:04:04;;;;;;;1.50;1.40;;;9.20;99.90;9.00;99023.00;;;;4892457;28;110778;-66
2024/03/30 05:06:29;;;;;;;2.90;1.77;;;9.10;99.90;9.00;99027.00;;;;4897155;28;94930;-62
2024/03/30 05:08:55;;;;;;;3.40;1.30;;;9.10;99.90;9.00;99032.00;;;;4895184;28;110863;-65
2024/03/30 05:11:21;;;;;;;2.53;1.70;;;9.20;99.90;9.00;99030.00;;;;4892935;28;107888;-65
2024/03/30 05:13:46;;;;;;;3.30;1.90;;;9.10;99.90;9.00;99028.00;;;;4890276;28;119973;-65
2024/03/30 05:16:12;;;;;;;6.90;1.73;;;9.10;99.90;9.00;99029.00;;;;4892538;28;121800;-65
2024/03/30 05:18:38;;;;;;;4.20;1.60;;;9.10;99.90;9.00;99028.00;;;;4895676;28;93398;-66
2024/03/30 05:21:03;;;;;;;2.40;1.30;;;9.10;99.90;9.00;99037.00;;;;4892760;28;108150;-65
2024/03/30 05:23:32;;;;;;;3.17;2.00;;;9.10;99.90;9.00;99020.00;;;;4893663;28;93366;-65
2024/03/30 05:26:00;;;;;;;3.90;2.30;;;9.10;99.90;9.10;99029.00;;;;4891505;28;111284;-65
2024/03/30 05:28:28;;;;;;;2.53;1.70;;;9.10;99.90;9.10;99031.00;;;;4893999;28;94306;-65
2024/03/30 05:30:56;;;;;;;2.50;2.30;;;9.10;99.90;9.20;99028.00;;;;4892004;28;92768;-65
2024/03/30 05:33:24;;;;;;;4.33;1.60;;;9.20;99.90;9.30;99024.00;;;;4892395;28;93135;-64
2024/03/30 05:35:54;;;;;;;1.83;1.10;;;9.30;99.90;9.40;99029.00;;;;4896964;28;93322;-63
2024/03/30 05:38:20;;;;;;;1.93;1.37;;;9.40;99.90;9.50;99021.00;;;;4894174;28;92228;-64
2024/03/30 05:40:47;;;;;;;2.27;1.60;;;9.50;99.90;9.60;99021.00;;;;4890344;28;93471;-65
2024/03/30 05:43:13;;;;;;;1.30;1.03;;;9.60;99.90;9.80;99023.00;;;;4888693;28;112809;-64
2024/03/30 05:45:41;;;;;;;6.20;2.03;;;9.70;99.90;9.90;99027.00;;;;4892872;28;121469;-64
2024/03/30 05:48:07;;;;;;;2.30;1.73;;;9.80;99.90;10.00;99023.00;;;;4895097;28;103191;-63
2024/03/30 05:50:34;;;;;;;3.07;2.50;;;10.00;99.90;10.00;99024.00;;;;4892879;28;92827;-64
2024/03/30 05:53:01;;;;;;;4.07;1.63;;;10.00;99.90;10.10;99021.00;;;;4893071;28;118460;-65
2024/03/30 05:55:27;;;;;;;5.57;1.77;;;10.10;99.90;10.20;99024.00;;;;4892225;28;93380;-63
2024/03/30 05:57:58;;;;;;;3.67;2.60;;;10.20;99.90;10.30;99017.00;;;;4891838;28;104501;-64
2024/03/30 06:00:25;;;;;;;6.10;2.43;;;10.30;99.90;10.40;99012.00;;;;4892022;28;92988;-64
2024/03/30 06:02:51;;;;;;;4.80;3.00;;;10.40;99.90;10.50;99016.00;;;;4891732;28;92785;-64
2024/03/30 06:05:16;;;;;;;1.93;1.60;;;10.50;99.90;10.50;99020.00;;;;4893725;28;122655;-64
2024/03/30 06:07:42;;;;;;;11.03;2.73;;;10.60;99.90;10.60;99021.00;;;;4893435;28;94099;-64
2024/03/30 06:10:10;;;;;;;4.47;1.83;;;10.60;99.90;10.70;99020.00;;;;4891837;28;107687;-63
2024/03/30 06:12:36;;;;;;;2.70;1.87;;;10.70;99.90;10.80;99024.00;;;;4892018;28;94739;-63
2024/03/30 06:15:04;;;;;;;6.20;2.13;;;10.80;99.90;10.80;99017.00;;;;4892760;28;113641;-66
2024/03/30 06:17:29;;;;;;;4.10;2.20;;;10.80;99.90;10.90;99013.00;;;;4890076;28;93234;-63
2024/03/30 06:19:57;;;;;;;4.43;1.70;;;10.90;99.90;11.00;99020.00;;;;4892443;28;109220;-64
2024/03/30 06:22:26;;;;;;;2.23;1.60;;;11.00;99.90;11.00;99023.00;;;;4889953;28;93440;-63
2024/03/30 06:24:51;;;;;;;3.27;1.83;;;11.00;99.90;11.10;99020.00;;;;4892286;28;93403;-64
2024/03/30 06:27:17;;;;;;;2.90;1.93;;;11.10;99.90;11.20;99023.00;;;;4896953;28;92250;-65
2024/03/30 06:29:43;;;;;;;3.87;2.30;;;11.20;99.90;11.30;99012.00;;;;4895160;28;108975;-65
2024/03/30 06:32:08;;;;;;;1.87;1.77;;;11.30;99.90;11.40;99023.00;;;;4895073;28;122907;-63
2024/03/30 06:34:34;;;;;;;3.97;2.20;;;11.40;99.90;11.50;99020.00;;;;4893641;28;121632;-63
2024/03/30 06:37:00;;;;;;;3.00;2.03;;;11.50;99.90;11.60;99024.00;;;;4891593;28;92904;-63
2024/03/30 06:39:27;;;;;;;1.87;1.70;;;10.90;99.90;11.70;99021.00;;;;4890098;28;108419;-64
2024/03/30 06:44:37;;;;;;;3.57;1.97;;;11.90;99.90;12.10;99025.00;;;;4894929;28;92983;-64
2024/03/30 06:47:03;;;;;;;3.70;2.97;;;12.10;99.90;12.30;99018.00;;;;4891746;28;109958;-64
2024/03/30 06:49:29;;;;;;;4.20;2.90;;;12.30;99.90;12.60;99032.00;;;;4884356;28;94089;-63
2024/03/30 06:51:54;;;;;;;15.70;3.10;;;12.40;99.90;12.80;99018.00;;;;4886352;28;122020;-63
2024/03/30 06:54:20;;;;;;;3.40;2.73;;;12.70;99.90;13.10;99027.00;;;;4889353;28;122401;-64
2024/03/30 06:56:46;;;;;;;10.53;3.13;;;13.00;99.90;13.40;99030.00;;;;4892018;28;93156;-64
2024/03/30 06:59:12;;;;;;;4.20;3.07;;;13.20;99.90;13.70;99026.00;;;;4874056;28;107467;-64
2024/03/30 07:01:38;;;;;;;7.63;2.67;;;13.60;99.90;14.00;99029.00;;;;4880819;28;93641;-64
2024/03/30 07:04:04;;;;;;;10.52;3.13;;;13.80;99.90;14.30;99029.00;;;;4889340;28;113225;-64
2024/03/30 07:06:30;;;;;;;6.82;2.05;;;14.10;99.90;14.60;99035.00;;;;4891659;28;92965;-63
2024/03/30 07:08:57;;;;;;;7.25;2.22;;;14.40;99.90;14.90;99029.00;;;;4890502;28;111418;-65
2024/03/30 07:11:23;;;;;;;10.80;2.42;;;14.70;99.90;15.20;99037.00;;;;4890883;28;94062;-65
2024/03/30 07:13:49;;;;;;;5.55;2.47;;;15.00;99.90;15.40;99027.00;;;;4891320;28;94387;-65
2024/03/30 07:16:15;;;;;;;6.60;3.08;;;15.30;99.90;15.60;99027.00;;;;4889871;28;93554;-64
2024/03/30 07:18:43;;;;;;;5.05;2.45;;;15.50;99.90;15.90;99029.00;;;;4894006;28;93596;-65
2024/03/30 07:21:08;;;;;;;11.48;2.67;;;15.70;99.90;16.00;99041.00;;;;4890003;28;112916;-64
2024/03/30 07:23:34;;;;;;;4.53;2.05;;;15.90;99.90;16.30;99038.00;;;;4894407;28;124068;-64
2024/03/30 07:26:06;;;;;;;10.18;2.78;;;16.10;99.90;16.50;99052.00;;;;4891773;28;92915;-64
2024/03/30 07:28:32;;;;;;;7.93;2.97;;;16.30;99.90;16.70;99057.00;;;;4890946;28;93142;-64
2024/03/30 07:31:05;;;;;;;3.75;1.90;;;16.50;99.90;16.90;99063.00;;;;4894322;28;121574;-64
2024/03/30 07:33:32;;;;;;;4.68;2.58;;;16.70;99.90;17.10;99068.00;;;;4889285;28;93373;-65
2024/03/30 07:35:58;;;;;;;7.10;2.55;;;17.00;99.90;17.40;99073.00;;;;4906566;28;102215;-65
2024/03/30 07:38:27;;;;;;;13.10;3.55;;;17.20;99.90;17.70;99067.00;;;;4892214;28;93231;-66
2024/03/30 07:40:53;;;;;;;7.15;3.35;;;17.50;99.90;18.00;99068.00;;;;4891366;28;93034;-65
2024/03/30 07:43:19;;;;;;;7.65;3.25;;;17.70;99.90;18.20;99066.00;;;;4889276;28;119760;-63
2024/03/30 07:45:45;;;;;;;18.42;3.67;;;18.00;99.90;18.50;99073.00;;;;4908591;28;105538;-64
2024/03/30 07:48:11;;;;;;;7.32;2.80;;;18.30;99.90;18.90;99079.00;;;;4890802;28;108090;-63
2024/03/30 07:50:37;;;;;;;16.92;3.55;;;18.60;99.90;19.20;99077.00;;;;4888618;28;124056;-64
2024/03/30 07:53:02;;;;;;;10.90;3.97;;;18.90;99.90;19.50;99072.00;;;;4891392;28;120836;-63
2024/03/30 07:55:29;;;;;;;11.00;3.92;;;19.30;99.90;19.80;99078.00;;;;4886004;28;93083;-64
2024/03/30 07:57:58;;;;;;;9.02;3.38;;;19.60;99.90;20.10;99085.00;;;;4889463;28;92946;-64
2024/03/30 08:00:24;;;;;;;9.73;3.72;;;19.90;99.10;20.40;99077.00;;;;4890301;28;122395;-64
2024/03/30 08:02:50;;;;;;;8.85;3.15;;;20.20;96.70;20.60;99084.00;;;;4893519;28;93669;-64
2024/03/30 08:05:17;;;;;;;19.77;5.63;;;20.40;93.70;20.70;99076.00;;;;4889860;28;99726;-64
2024/03/30 08:07:43;;;;;;;11.57;3.95;;;20.50;92.10;20.80;99069.00;;;;4890254;28;94033;-63
2024/03/30 08:10:08;;;;;;;11.02;3.60;;;20.60;91.00;20.90;99064.00;;;;4889382;28;121568;-64
2024/03/30 08:12:34;;;;;;;7.65;4.05;;;20.80;88.80;21.10;99074.00;;;;4889986;28;94483;-65
2024/03/30 08:15:00;;;;;;;14.57;3.58;;;20.90;85.70;21.20;99077.00;;;;4893045;28;94214;-63
2024/03/30 08:17:25;;;;;;;22.58;5.03;;;21.30;84.50;21.40;99073.00;;;;4889598;28;108880;-63
2024/03/30 08:19:51;;;;;;;12.15;4.15;;;21.20;82.70;21.60;99077.00;;;;4890753;28;122638;-66
2024/03/30 08:22:17;;;;;;;18.52;4.82;;;21.40;79.60;21.70;99078.00;;;;4888000;28;123303;-65
2024/03/30 08:24:42;;;;;;;6.35;3.30;;;21.50;76.30;21.80;99082.00;;;;4888032;28;103580;-65
2024/03/30 08:27:08;;;;;;;9.45;4.05;;;21.70;75.90;22.00;99087.00;;;;4887420;28;106845;-66
2024/03/30 08:29:34;;;;;;;13.57;4.90;;;21.80;76.50;22.30;99088.00;;;;4894464;28;121018;-65
2024/03/30 08:31:59;;;;;;;28.13;5.57;;;22.00;74.10;22.40;99084.00;;;;4892848;28;120675;-65
2024/03/30 08:34:25;;;;;;;12.68;4.35;;;22.20;70.40;22.50;99093.00;;;;4891779;28;109487;-65
2024/03/30 08:36:51;;;;;;;19.35;3.88;;;22.30;68.50;22.60;99092.00;;;;4891667;28;109177;-66
2024/03/30 08:39:16;;;;;;;11.90;3.97;;;22.30;65.70;22.60;99094.00;;;;4888432;28;122579;-65
2024/03/30 08:41:42;;;;;;;11.15;4.53;;;22.40;65.50;22.70;99088.00;;;;4886908;28;122393;-65
2024/03/30 08:44:08;;;;;;;14.63;4.82;;;22.50;63.70;22.80;99091.00;;;;4893233;28;109623;-64
2024/03/30 08:46:33;;;;;;;26.40;4.22;;;22.60;63.50;22.90;99093.00;;;;4905363;28;92798;-66
2024/03/30 08:49:04;;;;;;;20.88;6.65;;;22.70;60.30;22.90;99096.00;;;;4895280;28;122950;-65
2024/03/30 08:51:30;;;;;;;20.13;6.47;;;23.40;60.10;23.00;99087.00;;;;4896731;28;93419;-65
2024/03/30 08:54:02;;;;;;;11.90;4.30;;;22.80;60.30;23.10;99088.00;;;;4888791;28;92641;-66
2024/03/30 08:56:33;;;;;;;15.25;4.55;;;22.90;56.90;23.10;99081.00;;;;4892373;28;92942;-65
2024/03/30 08:58:59;;;;;;;31.00;6.55;;;22.90;55.70;23.10;99093.00;;;;4890021;28;94222;-65
2024/03/30 09:01:25;;;;;;;24.58;6.43;;;22.90;56.00;23.10;99088.00;;;;4884741;28;115232;-64
2024/03/30 09:03:51;;;;;;;24.67;5.05;;;22.90;56.60;23.20;99082.00;;;;4890783;28;93028;-64
2024/03/30 09:06:17;;;;;;;16.00;4.60;;;23.00;55.30;23.30;99075.00;;;;4891499;28;93103;-64
2024/03/30 09:08:44;;;;;;;12.73;5.20;;;23.10;54.80;23.40;99080.00;;;;4889858;28;122622;-64
2024/03/30 09:11:10;;;;;;;14.05;5.00;;;23.10;54.60;23.50;99082.00;;;;4892053;28;93866;-65
2024/03/30 09:13:37;;;;;;;20.23;5.25;;;23.30;53.20;23.50;99087.00;;;;4895601;28;93236;-64
2024/03/30 09:16:03;;;;;;;24.52;5.15;;;23.30;52.70;23.50;99090.00;;;;4895477;28;99291;-64
2024/03/30 09:18:29;;;;;;;25.42;5.20;;;23.30;52.80;23.60;99086.00;;;;4893035;28;92366;-64
2024/03/30 09:20:56;;;;;;;27.83;5.28;;;23.40;51.90;23.60;99073.00;;;;4892901;28;92993;-66
2024/03/30 09:23:21;;;;;;;10.10;4.95;;;23.40;51.80;23.70;99076.00;;;;4888602;28;102594;-64
2024/03/30 09:25:47;;;;;;;35.25;6.07;;;23.40;51.60;23.80;99077.00;;;;4891044;28;108464;-63
2024/03/30 09:28:13;;;;;;;17.85;4.93;;;23.50;51.90;23.90;99074.00;;;;4890973;28;93501;-64
2024/03/30 09:30:39;;;;;;;10.65;4.93;;;23.60;51.40;24.00;99085.00;;;;4889037;28;122490;-64
2024/03/30 09:33:04;;;;;;;28.05;5.68;;;23.70;51.60;24.20;99082.00;;;;4890312;28;94058;-64
2024/03/30 09:35:30;;;;;;;14.73;6.10;;;23.90;50.60;24.30;99073.00;;;;4893352;28;109911;-65
2024/03/30 09:37:56;;;;;;;19.90;5.07;;;24.00;49.30;24.40;99076.00;;;;4895068;28;102417;-64
2024/03/30 09:40:21;;;;;;;19.10;5.00;;;24.10;49.50;24.60;99080.00;;;;4886889;28;115584;-66
2024/03/30 09:42:49;;;;;;;26.35;5.60;;;24.30;49.00;24.70;99076.00;;;;4885192;28;109617;-65
2024/03/30 09:45:15;;;;;;;13.25;4.43;;;24.40;49.40;25.00;99063.00;;;;4893198;28;92994;-65
2024/03/30 09:47:42;;;;;;;28.85;6.20;;;24.60;49.60;25.20;99073.00;;;;4889696;28;123052;-65
2024/03/30 09:50:10;;;;;;;19.77;6.72;;;24.80;47.50;25.30;99079.00;;;;4893944;28;98847;-64
2024/03/30 09:52:39;;;;;;;19.92;6.05;;;25.00;46.80;25.50;99072.00;;;;4888717;28;110927;-64
2024/03/30 09:55:11;;;;;;;21.13;5.75;;;25.10;46.80;25.60;99071.00;;;;4890138;28;93186;-65
2024/03/30 09:57:41;;;;;;;28.23;4.65;;;25.30;45.10;25.70;99064.00;;;;4889223;28;93700;-64
2024/03/30 10:00:15;;;;;;;18.65;5.07;;;25.30;44.50;25.70;99065.00;;;;4885511;28;110544;-64
2024/03/30 10:02:41;;;;;;;21.70;5.63;;;25.40;44.10;25.70;99068.00;;;;4892072;28;93268;-64
2024/03/30 10:05:09;;;;;;;20.85;6.90;;;25.40;44.20;25.80;99070.00;;;;4889649;28;93177;-64
2024/03/30 10:08:03;;;;;;;26.35;7.10;;;25.40;44.00;25.90;99065.00;;;;4892845;28;92285;-64
2024/03/30 10:10:30;;;;;;;31.70;5.45;;;25.50;44.30;26.10;99058.00;;;;4894523;28;93556;-66
2024/03/30 10:13:25;;;;;;;19.90;5.90;;;25.70;45.10;26.40;99060.00;;;;4895627;28;93365;-65
2024/03/30 10:15:52;;;;;;;26.02;5.88;;;25.90;43.60;26.50;99056.00;;;;4886262;28;100224;-65
2024/03/30 10:18:18;;;;;;;26.17;6.10;;;26.10;43.90;26.70;99060.00;;;;4887458;28;93472;-65
2024/03/30 10:20:44;;;;;;;26.23;6.68;;;26.30;43.40;26.70;99054.00;;;;4888290;28;93030;-65
2024/03/30 10:23:10;;;;;;;22.55;5.97;;;26.30;42.10;26.70;99053.00;;;;4889780;28;92907;-64
2024/03/30 10:25:36;;;;;;;25.25;6.85;;;26.30;41.40;26.70;99044.00;;;;4889372;28;107186;-65
2024/03/30 10:28:04;;;;;;;23.80;6.95;;;26.30;41.50;26.70;99044.00;;;;4892378;28;94297;-65
2024/03/30 10:30:30;;;;;;;21.95;6.50;;;26.30;41.30;26.60;99051.00;;;;4888326;28;93885;-65
2024/03/30 10:33:03;;;;;;;35.03;8.35;;;26.30;40.60;26.50;99049.00;;;;4895235;28;92518;-65
2024/03/30 10:35:29;;;;;;;26.27;8.02;;;26.20;40.10;26.30;99056.00;;;;4895649;28;94661;-65
2024/03/30 10:37:58;;;;;;;32.60;9.18;;;26.10;40.30;26.20;99041.00;;;;4889465;28;123051;-65
2024/03/30 10:40:24;;;;;;;23.08;6.97;;;26.00;39.70;26.20;99053.00;;;;4890037;28;93848;-66
2024/03/30 10:42:55;;;;;;;18.13;7.13;;;25.90;39.70;26.20;99052.00;;;;4891764;28;107781;-65
2024/03/30 10:45:20;;;;;;;15.05;6.45;;;25.90;40.00;26.20;99053.00;;;;4892483;28;93289;-65
2024/03/30 10:47:46;;;;;;;18.88;6.63;;;25.90;39.60;26.30;99053.00;;;;4892541;28;93097;-65
2024/03/30 10:50:12;;;;;;;27.20;6.72;;;26.00;40.70;26.50;99049.00;;;;4890344;28;120370;-66
2024/03/30 10:52:41;;;;;;;22.20;8.48;;;26.10;40.90;26.70;99036.00;;;;4890499;28;110788;-66
2024/03/30 10:55:07;;;;;;;30.95;6.72;;;26.30;41.00;27.00;99048.00;;;;4893809;28;93108;-67